Flight Track Log - Related Links

Times and Time Zones

All times are in EDT time to prevent confusion due to time zone crossing. See the N39PH flight status page for this flight to view local times or setup timezone preferences in your user account.

Time Position Orientation Groundspeed Altitude Reporting Facility
EDT Latitude Longitude Course Direction KTS MPH feet Rate Location/Type
Tue 11:01:56 PM 37.1381 -107.7669 144° Southeast 189 217 7,100  Level Albuquerque Center
Tue 11:02:57 PM 37.0992 -107.7425 153° Southeast 196 226 8,800 1,623 Climbing Albuquerque Center
Tue 11:03:58 PM 37.0486 -107.7017 147° Southeast 193 222 10,400 1,672 Climbing Albuquerque Center
Tue 11:04:59 PM 37.0053 -107.6628 144° Southeast 196 226 12,200 1,571 Climbing Albuquerque Center
Tue 11:06:00 PM 36.7760 -107.4293 144° Southeast  Level FlightAware Approximate
Tue 11:06:04 PM 36.9550 -107.6161 143° Southeast 197 227 13,700  Level Denver Center
Tue 11:07:00 PM 36.7150 -107.3734 144° Southeast  Level FlightAware Approximate
Tue 11:07:05 PM 36.9058 -107.5725 145° Southeast 205 236 15,000  Level Denver Center
Tue 11:08:06 PM 36.8456 -107.5161 143° Southeast 222 255 16,500 1,279 Climbing Denver Center
Tue 11:09:07 PM 36.7928 -107.4694 145° Southeast 234 269 17,600 984 Climbing Denver Center
Tue 11:10:08 PM 36.7392 -107.4239 146° Southeast 240 276 18,500 1,033 Climbing Denver Center
Tue 11:11:09 PM 36.6739 -107.3650 144° Southeast 253 291 19,700 984 Climbing Denver Center
Tue 11:12:10 PM 36.6169 -107.3153 145° Southeast 259 298 20,500 689 Climbing Denver Center
Tue 11:13:11 PM 36.5575 -107.2644 146° Southeast 266 306 21,100 246 Climbing Denver Center
Tue 11:14:12 PM 36.4814 -107.1969 145° Southeast 290 334 21,000 -49 Descending Denver Center
Tue 11:15:13 PM 36.4125 -107.1367 145° Southeast 307 353 21,000  Level Denver Center
Tue 11:16:14 PM 36.3436 -107.0767 145° Southeast 313 360 21,000  Level Denver Center
Tue 11:17:14 PM 36.2647 -107.0083 145° Southeast 312 359 21,000  Level Albuquerque Center
Tue 11:18:15 PM 36.1964 -106.9486 145° Southeast 312 359 21,000  Level Albuquerque Center
Tue 11:19:17 PM 36.1228 -106.8844 145° Southeast 313 360 21,000  Level Albuquerque Center
Tue 11:20:17 PM 36.0517 -106.8225 145° Southeast 312 359 21,000  Level Albuquerque Center
Tue 11:21:19 PM 35.9811 -106.7611 145° Southeast 310 357 21,000  Level Albuquerque Center
Tue 11:22:20 PM 35.9017 -106.6931 145° Southeast 310 357 21,000  Level Albuquerque Center
Tue 11:23:21 PM 35.8342 -106.6333 144° Southeast 311 358 21,000  Level Albuquerque Center
Tue 11:24:23 PM 35.7661 -106.5747 145° Southeast 311 358 21,000  Level Albuquerque Center
Tue 11:25:24 PM 35.6856 -106.5058 145° Southeast 313 360 21,000  Level Albuquerque Center
Tue 11:26:25 PM 35.6236 -106.4525 145° Southeast 315 362 21,000  Level Albuquerque Center
Tue 11:27:26 PM 35.5522 -106.3911 145° Southeast 314 361 21,000  Level Albuquerque Center
Tue 11:28:28 PM 35.4808 -106.3300 145° Southeast 312 359 21,000  Level Albuquerque Center
Tue 11:29:29 PM 35.3953 -106.2553 145° Southeast 311 358 21,000  Level Albuquerque Center
Tue 11:30:30 PM 35.3286 -106.2000 146° Southeast 320 368 21,000  Level Albuquerque Center
Tue 11:31:32 PM 35.2447 -106.1297 146° Southeast 312 359 21,000  Level Albuquerque Center
Tue 11:32:33 PM 35.1736 -106.0694 145° Southeast 308 354 21,000  Level Albuquerque Center
Tue 11:33:34 PM 35.1017 -106.0081 145° Southeast 313 360 21,000  Level Albuquerque Center
Tue 11:34:35 PM 35.0350 -105.9497 144° Southeast 313 360 21,000  Level Albuquerque Center
Tue 11:35:38 PM 34.9553 -105.8836 146° Southeast 318 366 21,000  Level Albuquerque Center
Tue 11:36:38 PM 34.8831 -105.8228 145° Southeast 316 364 21,000  Level Albuquerque Center
Tue 11:37:39 PM 34.8117 -105.7628 145° Southeast 313 360 21,000  Level Albuquerque Center
Tue 11:38:40 PM 34.7392 -105.7022 146° Southeast 312 359 21,000  Level Albuquerque Center
Tue 11:39:42 PM 34.6686 -105.6417 145° Southeast 310 357 21,000  Level Albuquerque Center
Tue 11:40:43 PM 34.5958 -105.5836 147° Southeast 310 357 21,000  Level Albuquerque Center
Tue 11:41:44 PM 34.5242 -105.5236 145° Southeast 310 357 21,000  Level Albuquerque Center
Tue 11:42:45 PM 34.4528 -105.4650 146° Southeast 309 356 21,000  Level Albuquerque Center
Tue 11:43:46 PM 34.3817 -105.4053 145° Southeast 309 356 21,000  Level Albuquerque Center
Tue 11:44:48 PM 34.3100 -105.3458 146° Southeast 309 356 21,000  Level Albuquerque Center
Tue 11:45:49 PM 34.2269 -105.2806 147° Southeast 305 351 21,000  Level Albuquerque Center
Tue 11:46:50 PM 34.1558 -105.2239 147° Southeast 304 350 21,000 -148 Level Albuquerque Center
Tue 11:47:51 PM 34.0864 -105.1672 146° Southeast 302 348 20,700 -689 Descending Albuquerque Center
Tue 11:48:52 PM 34.0072 -105.1050 147° Southeast 332 382 19,600 -1,180 Descending Albuquerque Center
Tue 11:49:53 PM 33.9342 -105.0439 145° Southeast 321 369 18,300 -934 Descending Albuquerque Center
Tue 11:50:54 PM 33.8656 -104.9811 143° Southeast 288 331 17,700 -787 Descending Albuquerque Center
Tue 11:51:55 PM 33.8031 -104.9283 145° Southeast 275 316 16,700 -1,073 Descending Albuquerque Center
Tue 11:52:57 PM 33.7411 -104.8761 145° Southeast 273 314 15,500 -1,220 Descending Albuquerque Center
Tue 11:53:58 PM 33.6750 -104.8303 150° Southeast 273 314 14,200 -1,574 Descending Albuquerque Center
Tue 11:54:59 PM 33.6036 -104.7750 147° Southeast 286 329 12,300 -1,623 Descending Albuquerque Center
Tue 11:56:00 PM 33.5383 -104.7283 149° Southeast 276 318 10,900 -1,574 Descending Albuquerque Center
Tue 11:57:01 PM 33.4767 -104.6783 146° Southeast 270 311 9,100 -1,770 Descending Albuquerque Center
Tue 11:58:02 PM 33.4208 -104.6331 146° Southeast 248 285 7,300 -1,623 Descending Albuquerque Center
Tue 11:59:03 PM 33.3653 -104.6006 154° Southeast 225 259 5,800 -836 Descending Albuquerque Center
Wed 12:00:04 AM 33.3111 -104.5858 167° South 187 215 5,600 -344 Descending Albuquerque Center
Wed 12:01:05 AM 33.2683 -104.5842 178° South 165 190 5,100 -738 Descending Albuquerque Center
Wed 12:02:06 AM 33.2708 -104.5436 86° East 125 144 4,100 -738 Descending Albuquerque Center
Wed 12:03:07 AM 33.2972 -104.5400 North 96 110 3,600 -492 Descending Albuquerque Center

Login

Don't have an account? Register now (free) for customized features, flight alerts, and more!